Weather History for Land O' Lakes, WI

Change the Weather History Date:

Tuesday, March 12, 2013

  Actual Average (KEGV) Record (KEGV)
Temperature  
Mean Temperature 20 °F -  
Max Temperature 23 °F 30 °F 53 °F (2007)
Min Temperature 17 °F 9 °F -11 °F (2009)
Degree Days  
Heating Degree Days 45    
Moisture  
Dew Point 16 °F    
Average Humidity 86    
Maximum Humidity 93    
Minimum Humidity 74    
Precipitation  
Precipitation 0.00 in - - ()
Sea Level Pressure  
Sea Level Pressure 29.75 in    
Wind  
Wind Speed 7 mph (NW)    
Max Wind Speed 16 mph    
Max Gust Speed 21 mph    
Visibility 4 miles    
Events Snow    
Averages and records for this station are not official NWS values.
T = Trace of Precipitation, MM = Missing Value Source: NWS Daily Summary

Daily Weather History Graph

Daily Weather History Graph

Search for Another Location

Airport:

Trip Planner

Search our weather history database for the weather conditions in past years. The results will help you decide how hot, cold, wet, or windy it might be!

Date:

Astronomy

Mar. 12, 2013 Rise Set
Actual Time 7:14 AM CDT 6:58 PM CDT
Civil Twilight 6:44 AM CDT 7:28 PM CDT
Nautical Twilight 6:10 AM CDT 8:03 PM CDT
Astronomical Twilight 5:34 AM CDT 8:39 PM CDT
Moon 7:16 AM CDT (3/12) 8:21 PM CDT (3/12)
Length of Visible Light 12h 43m
Length of Day
11h 44m
New Moon, 1% of the Moon is Illuminated
Mar 12
New Moon
Mar 19
First Quarter
Mar 27
Full
Apr 2
Last Quarter
Apr 10
New

Hourly Weather History & Observations

Time (CDT) Temp. Windchill Dew Point Humidity Pressure Visibility Wind Dir Wind Speed Gust Speed Precip Events Conditions
12:15 AM 19.4 °F 8.6 °F 17.6 °F 93% 29.64 in 10.0 mi WNW 9.2 mph - N/A Snow Light Snow
12:35 AM 19.4 °F 11.5 °F 17.6 °F 93% 29.64 in 10.0 mi WNW 5.8 mph - N/A Snow Light Snow
12:55 AM 19.4 °F 14.3 °F 17.6 °F 93% 29.64 in 7.0 mi WNW 3.5 mph - N/A Snow Light Snow
1:15 AM 19.4 °F 12.8 °F 17.6 °F 93% 29.64 in 7.0 mi WNW 4.6 mph - N/A Snow Light Snow
1:35 AM 19.4 °F 10.4 °F 17.6 °F 93% 29.64 in 10.0 mi NW 6.9 mph - N/A Snow Light Snow
1:55 AM 19.4 °F 14.3 °F 17.6 °F 93% 29.65 in 10.0 mi WNW 3.5 mph - N/A Snow Light Snow
2:15 AM 19.4 °F 12.8 °F 17.6 °F 93% 29.65 in 10.0 mi WNW 4.6 mph - N/A Snow Light Snow
2:35 AM 19.4 °F 11.5 °F 17.6 °F 93% 29.65 in 10.0 mi WNW 5.8 mph - N/A Snow Light Snow
2:55 AM 19.4 °F 12.8 °F 17.6 °F 93% 29.65 in 7.0 mi WNW 4.6 mph - N/A Snow Light Snow
3:15 AM 19.4 °F 12.8 °F 17.6 °F 93% 29.65 in 5.0 mi NW 4.6 mph - N/A Snow Light Snow
3:35 AM 19.4 °F 11.5 °F 17.6 °F 93% 29.65 in 5.0 mi WNW 5.8 mph - N/A Snow Light Snow
3:55 AM 19.4 °F 12.8 °F 17.6 °F 93% 29.65 in 7.0 mi NW 4.6 mph - N/A Snow Light Snow
4:15 AM 19.4 °F - 17.6 °F 93% 29.65 in 7.0 mi Calm Calm - N/A Snow Light Snow
4:35 AM 19.4 °F 12.8 °F 17.6 °F 93% 29.65 in 7.0 mi NW 4.6 mph - N/A Snow Light Snow
4:55 AM 19.4 °F 12.8 °F 17.6 °F 93% 29.66 in 7.0 mi NW 4.6 mph - N/A Snow Light Snow
5:15 AM 19.4 °F 14.3 °F 15.8 °F 86% 29.66 in 7.0 mi WNW 3.5 mph - N/A Snow Light Snow
5:35 AM 19.4 °F 12.8 °F 15.8 °F 86% 29.67 in 5.0 mi WNW 4.6 mph - N/A Snow Light Snow
5:55 AM 19.4 °F 14.3 °F 15.8 °F 86% 29.67 in 7.0 mi WNW 3.5 mph - N/A Snow Light Snow
6:15 AM 19.4 °F 12.8 °F 17.6 °F 93% 29.68 in 7.0 mi WNW 4.6 mph - N/A Snow Light Snow
6:35 AM 19.4 °F 11.5 °F 17.6 °F 93% 29.68 in 7.0 mi WNW 5.8 mph - N/A Snow Light Snow
6:55 AM 19.4 °F 14.3 °F 17.6 °F 93% 29.68 in 5.0 mi WNW 3.5 mph - N/A Snow Light Snow
7:15 AM 19.4 °F 11.5 °F 17.6 °F 93% 29.68 in 5.0 mi WNW 5.8 mph - N/A Snow Light Snow
7:35 AM 19.4 °F 14.3 °F 17.6 °F 93% 29.68 in 4.0 mi WNW 3.5 mph - N/A Snow Light Snow
7:55 AM 19.4 °F - 17.6 °F 93% 29.68 in 5.0 mi Calm Calm - N/A Snow Light Snow
8:15 AM 19.4 °F 14.3 °F 17.6 °F 93% 29.69 in 4.0 mi West 3.5 mph - N/A Snow Light Snow
8:35 AM 21.2 °F 16.4 °F 17.6 °F 86% 29.69 in 3.0 mi WNW 3.5 mph - N/A Snow Light Snow
8:55 AM 21.2 °F 16.4 °F 17.6 °F 86% 29.69 in 2.5 mi WNW 3.5 mph - N/A Snow Light Snow
9:15 AM 21.2 °F 14.9 °F 17.6 °F 86% 29.69 in 1.5 mi WNW 4.6 mph - N/A Snow Light Snow
9:35 AM 21.2 °F 11.7 °F 17.6 °F 86% 29.69 in 2.0 mi WNW 8.1 mph - N/A Snow Light Snow
9:55 AM 21.2 °F 13.6 °F 17.6 °F 86% 29.69 in 1.8 mi WNW 5.8 mph - N/A Snow Light Snow
10:15 AM 21.2 °F 12.6 °F 17.6 °F 86% 29.69 in 2.0 mi West 6.9 mph - N/A Snow Light Snow
10:35 AM 23.0 °F 14.7 °F 17.6 °F 80% 29.70 in 1.8 mi West 6.9 mph - N/A Snow Light Snow
10:55 AM 23.0 °F 13.1 °F 17.6 °F 80% 29.70 in 1.5 mi West 9.2 mph - N/A Snow Light Snow
11:15 AM 23.0 °F 17.0 °F 19.4 °F 86% 29.70 in 1.8 mi WNW 4.6 mph - N/A Snow Light Snow
11:35 AM 23.0 °F 17.0 °F 19.4 °F 86% 29.70 in 1.2 mi West 4.6 mph - N/A Snow Light Snow
11:55 AM 23.0 °F 15.8 °F 19.4 °F 86% 29.71 in 1.0 mi NNW 5.8 mph - N/A Snow Light Snow
12:15 PM 23.0 °F 13.1 °F 17.6 °F 80% 29.72 in 1.8 mi WNW 9.2 mph 17.3 mph N/A Snow Light Snow
12:35 PM 23.0 °F 13.9 °F 17.6 °F 80% 29.72 in 3.0 mi NW 8.1 mph - N/A Snow Light Snow
12:55 PM 23.0 °F 12.4 °F 17.6 °F 80% 29.72 in 2.5 mi NW 10.4 mph 16.1 mph N/A Snow Light Snow
1:15 PM 23.0 °F 11.7 °F 17.6 °F 80% 29.73 in 3.0 mi WNW 11.5 mph 16.1 mph N/A Snow Light Snow
1:35 PM 23.0 °F 11.7 °F 17.6 °F 80% 29.73 in 2.0 mi NW 11.5 mph 17.3 mph N/A Snow Light Snow
1:55 PM 21.2 °F 9.5 °F 17.6 °F 86% 29.73 in 1.2 mi NNW 11.5 mph 16.1 mph N/A Snow Light Snow
2:15 PM 23.0 °F 13.9 °F 17.6 °F 80% 29.74 in 1.5 mi NW 8.1 mph 12.7 mph N/A Snow Light Snow
2:35 PM 23.0 °F 11.7 °F 17.6 °F 80% 29.75 in 1.5 mi NNW 11.5 mph - N/A Snow Light Snow
2:55 PM 21.2 °F 8.9 °F 15.8 °F 80% 29.76 in 2.0 mi NNW 12.7 mph 19.6 mph N/A Snow Light Snow
3:15 PM 21.2 °F 7.3 °F 14.0 °F 74% 29.77 in 2.5 mi NNW 16.1 mph 20.7 mph N/A Snow Light Snow
3:35 PM 21.2 °F 10.1 °F 14.0 °F 74% 29.77 in 3.0 mi NW 10.4 mph 16.1 mph N/A Snow Light Snow
3:55 PM 19.4 °F 7.2 °F 14.0 °F 80% 29.79 in 1.2 mi NW 11.5 mph 17.3 mph N/A Snow Light Snow
4:15 PM 19.4 °F 6.0 °F 12.2 °F 74% 29.79 in 2.0 mi NNW 13.8 mph 18.4 mph N/A Snow Light Snow
4:35 PM 19.4 °F 7.2 °F 12.2 °F 74% 29.80 in 3.0 mi NW 11.5 mph 17.3 mph N/A Snow Light Snow
4:55 PM 19.4 °F 7.9 °F 12.2 °F 74% 29.81 in 1.8 mi NNW 10.4 mph 16.1 mph N/A Snow Light Snow
5:15 PM 17.6 °F 9.3 °F 14.0 °F 86% 29.82 in 0.8 mi NNW 5.8 mph - N/A Snow Light Snow
5:35 PM 17.6 °F 8.2 °F 14.0 °F 86% 29.82 in 1.5 mi NNW 6.9 mph - N/A Snow Light Snow
5:55 PM 17.6 °F 12.3 °F 14.0 °F 86% 29.83 in 0.8 mi NW 3.5 mph - N/A Snow Light Snow
6:15 PM 17.6 °F 10.7 °F 14.0 °F 86% 29.84 in 0.8 mi NNW 4.6 mph - N/A Snow Light Snow
6:35 PM 17.6 °F 5.7 °F 14.0 °F 86% 29.84 in 0.8 mi NW 10.4 mph - N/A Snow Light Snow
6:55 PM 17.6 °F 7.3 °F 14.0 °F 86% 29.85 in 1.5 mi NNW 8.1 mph 18.4 mph N/A Snow Light Snow
7:15 PM 17.6 °F 7.3 °F 14.0 °F 86% 29.86 in 2.5 mi NNW 8.1 mph 16.1 mph N/A Snow Light Snow
7:35 PM 17.6 °F 7.3 °F 14.0 °F 86% 29.87 in 2.0 mi NNW 8.1 mph 16.1 mph N/A Snow Light Snow
7:55 PM 17.6 °F 4.3 °F 14.0 °F 86% 29.88 in 2.0 mi NNW 12.7 mph 17.3 mph N/A Snow Light Snow
8:15 PM 17.6 °F 7.3 °F 14.0 °F 86% 29.88 in 1.8 mi NNW 8.1 mph - N/A Snow Light Snow
8:35 PM 19.4 °F 7.9 °F 14.0 °F 80% 29.89 in 2.0 mi North 10.4 mph - N/A Snow Light Snow
8:55 PM 17.6 °F 4.3 °F 14.0 °F 86% 29.90 in 2.0 mi North 12.7 mph 20.7 mph N/A Snow Light Snow
9:15 PM 17.6 °F 8.2 °F 14.0 °F 86% 29.90 in 1.2 mi North 6.9 mph - N/A Snow Light Snow
9:35 PM 17.6 °F 9.3 °F 14.0 °F 86% 29.91 in 1.8 mi NNW 5.8 mph - N/A Snow Light Snow
9:55 PM 17.6 °F 6.4 °F 14.0 °F 86% 29.91 in 3.0 mi North 9.2 mph - N/A Snow Light Snow
10:15 PM 17.6 °F 4.3 °F 14.0 °F 86% 29.91 in 2.5 mi North 12.7 mph 17.3 mph N/A Snow Light Snow
10:35 PM 17.6 °F 5.7 °F 14.0 °F 86% 29.92 in 2.5 mi North 10.4 mph - N/A Snow Light Snow
10:55 PM 17.6 °F 6.4 °F 14.0 °F 86% 29.93 in 1.8 mi North 9.2 mph - N/A Snow Light Snow
11:15 PM 17.6 °F 5.0 °F 14.0 °F 86% 29.93 in 1.8 mi North 11.5 mph 16.1 mph N/A Snow Light Snow
11:35 PM 17.6 °F 7.3 °F 14.0 °F 86% 29.94 in 1.5 mi North 8.1 mph - N/A Snow Light Snow
11:55 PM 17.6 °F 5.0 °F 14.0 °F 86% 29.94 in 3.0 mi NNW 11.5 mph 18.4 mph N/A Snow Light Snow